Redondo, Valles Caldera, New Mexico Weather observations

Data are for 10 minute period ending at time listed.
 Day   Time   Solar   Ave.   Ave.  Ave.  Vector  Max.   Baro.   Total    
  of    of     Rad.   Air    Rel.  Wind   Wind   Wind  Press.  Precip.   
Year   Day            Temp.  Hum.  Speed  Dir.   Gust                    
2016   (MST)  Kw/m2    F      %     mph   deg.    mph    mb.     in.     
-------------------------------------------------------------------------
 274    0:30   0.00   42.5    84    6.1   156    11.9   698.0    0.00 
 274    0:40   0.00   42.7    83    6.7   158    13.1   697.9    0.00 
 274    0:50   0.00   42.7    84    6.9   164    11.9   697.8    0.00 
 274    1:00   0.00   42.4    85    6.4   170    13.1   697.9    0.00 
 274    1:10   0.00   42.0    87    6.4   167    13.1   697.9    0.00 
 274    1:20   0.00   41.9    89    7.0   167    14.9   697.9    0.00 
 274    1:30   0.00   41.7    92    5.6   165    17.9   697.8    0.00 
 274    1:40   0.00   41.6    92    6.2   166    12.5   697.7    0.00 
 274    1:50   0.00   41.4    92    4.7   165    10.8   697.6    0.00 
 274    2:00   0.00   41.1    94    3.5   166    10.2   697.5    0.00 
 274    2:10   0.00   41.6    92    4.0   174    10.8   697.4    0.00 
 274    2:20   0.00   41.5    92    3.5   188    11.3   697.3    0.00 
 274    2:30   0.00   41.9    90    2.8   184    11.3   697.2    0.00 
 274    2:40   0.00   42.2    88    3.2   203    10.8   697.3    0.00 
 274    2:50   0.00   42.0    88    3.6   191    13.7   697.1    0.00 
 274    3:00   0.00   42.7    84    2.7   200    11.3   697.1    0.00 
 274    3:10   0.00   41.8    88    2.9   198    12.5   697.0    0.00 
 274    3:20   0.00   42.2    84    1.5   198     7.8   696.8    0.00 
 274    3:30   0.00   43.5    77    1.1   201     6.6   696.8    0.00 
 274    3:40   0.00   43.8    76    0.4   212     5.4   696.8    0.00 
 274    3:50   0.00   43.7    76    0.1   213     1.8   696.8    0.00 
 274    4:00   0.00   43.8    76    0.9   217     7.8   696.8    0.00 
 274    4:10   0.00   43.8    77    1.1   225     5.4   696.8    0.00 
 274    4:20   0.00   43.2    78    1.3   210    10.2   696.8    0.00 
 274    4:30   0.00   43.0    77    0.8   198     5.4   696.7    0.00 
 274    4:40   0.00   43.6    76    0.3   204     3.6   696.7    0.00 
 274    4:50   0.00   43.7    76    0.4   212     4.8   696.8    0.00 
 274    5:00   0.00   43.0    77    0.5   197     7.2   696.9    0.00 
 274    5:10   0.00   42.7    78    0.8   199     6.0   696.8    0.00 
 274    5:20   0.00   42.6    78    0.2   196     2.4   696.8    0.00 
 274    5:30   0.00   42.4    79    1.2   195     6.6   696.8    0.00 
 274    5:40   0.00   42.2    79    0.5   198     3.6   696.8    0.00 
 274    5:50   0.00   42.4    79    0.9   198     6.0   696.8    0.00 
 274    6:00   0.00   41.7    82    1.3   208     7.8   696.8    0.00 
 274    6:10   0.01   41.3    83    1.2   219     6.0   696.8    0.00 
 274    6:20   0.01   41.7    82    0.4   221     6.6   696.8    0.00 
 274    6:30   0.02   41.5    83    0.0   227     1.8   696.8    0.00 
 274    6:40   0.02   41.3    84    0.1   290     1.8   696.8    0.00 
 274    6:50   0.02   41.7    84    0.1   265     3.6   696.8    0.00 
 274    7:00   0.12   42.8    82    0.1   255     1.8   696.8    0.00 
 274    7:10   0.16   45.5    76    0.3   282     4.8   696.8    0.00 
 274    7:20   0.22   45.9    75    0.3   284     3.0   696.8    0.00 
 274    7:30   0.21   47.5    71    0.2   276     6.0   696.8    0.00 
 274    7:40   0.26   47.2    72    0.4   269     5.4   696.9    0.00 
 274    7:50   0.33   47.8    71    0.2   278     5.4   696.9    0.00 
 274    8:00   0.36   49.4    68    1.3   296     6.0   696.9    0.00 
 274    8:10   0.40   49.7    68    2.0   305     8.4   696.9    0.00 
 274    8:20   0.43   50.0    68    2.9   302     8.4   696.9    0.00 
 274    8:30   0.46   49.7    69    2.5   300     7.2   696.9    0.00 
 274    8:40   0.50   49.8    69    3.4   286     7.8   696.9    0.00 
 274    8:50   0.53   50.4    68    3.1   287     6.6   697.0    0.00 
 274    9:00   0.58   51.4    67    3.4   313     9.0   697.0    0.00 
 274    9:10   0.62   51.3    68    3.0   291     7.2   697.0    0.00 
 274    9:20   0.63   51.3    68    3.7   301    10.2   697.0    0.00 
 274    9:30   0.55   52.2    67    3.3   303     9.0   697.0    0.00 
 274    9:40   0.72   51.8    67    4.4   290     9.0   696.9    0.00 
 274    9:50   0.51   51.1    69    3.9   290    10.8   696.9    0.00 
 274   10:00   0.46   50.6    69    4.0   306     8.4   696.9    0.00 
 274   10:10   0.47   51.0    68    3.5   314    10.2   696.9    0.00 
 274   10:20   0.81   53.1    63    4.0   289    11.3   696.9    0.00 
 274   10:30   0.85   55.0    59    4.3   298    10.8   696.8    0.00 
 274   10:40   0.69   53.6    59    4.5   299     9.6   696.8    0.00 
 274   10:50   0.35   52.1    61    4.5   315     9.0   696.7    0.00 
 274   11:00   0.70   52.7    61    3.2   310     6.6   696.7    0.00 
 274   11:10   0.60   54.2    58    2.8   307    10.8   696.7    0.00 
 274   11:20   0.75   53.9    59    1.8   290     6.6   696.6    0.00 
 274   11:30   0.61   55.2    55    3.6   312     8.4   696.5    0.00 
 274   11:40   0.83   55.5    54    3.5   295     7.8   696.4    0.00 
 274   11:50   0.89   54.4    52    4.2   288     8.4   696.4    0.00 
 274   12:00   0.96   54.4    50    3.3   279     9.0   696.3    0.00 
 274   12:10   0.80   55.5    52    3.4   262    10.2   696.3    0.00 
 274   12:20   0.92   54.9    54    4.0   304     8.4   696.2    0.00 
 274   12:30   0.88   57.1    50    3.4   312     9.0   696.1    0.00 
 274   12:40   0.89   57.6    44    3.5   303     9.0   695.9    0.00 
 274   12:50   0.89   56.7    45    2.6   305    10.8   695.7    0.00 
 274   13:00   0.70   57.6    46    3.6   315     7.8   695.6    0.00 
 274   13:10   0.84   59.0    43    3.3   326     9.0   695.4    0.00 
 274   13:20   0.82   59.7    40    2.7   301     9.0   695.3    0.00 
 274   13:30   0.82   58.0    43    4.2   291    10.2   695.3    0.00 
 274   13:40   0.85   58.9    42    3.4   306     9.6   695.2    0.00 
 274   13:50   0.52   58.4    43    3.4   310     9.0   695.1    0.00 
 274   14:00   0.60   58.6    42    4.0   323     7.8   695.1    0.00 
 274   14:10   0.64   57.8    42    3.3   303     8.4   695.0    0.00 
 274   14:20   0.63   58.6    39    2.9   323     7.2   695.0    0.00 
 274   14:30   0.68   61.0    34    3.7   323    11.3   694.9    0.00 
 274   14:40   0.69   59.3    36    3.3   302     8.4   694.9    0.00 
 274   14:50   0.43   57.3    37    2.8   300     6.6   695.0    0.00 
 274   15:00   0.61   58.5    37    2.3   286     7.8   694.9    0.00 
 274   15:10   0.60   60.3    34    3.2   320     6.6   694.9    0.00 
 274   15:20   0.38   58.0    39    3.3   282     9.0   694.9    0.00 
 274   15:30   0.57   58.6    41    3.5   294    10.2   694.8    0.00 
 274   15:40   0.52   57.0    44    4.7   292    10.2   694.8    0.00 
 274   15:50   0.36   56.0    44    5.5   288    11.3   694.8    0.00 
 274   16:00   0.37   57.0    41    3.8   304     8.4   694.7    0.00 
 274   16:10   0.35   56.6    42    4.3   300     9.0   694.7    0.00 
 274   16:20   0.32   58.0    40    3.7   318     9.6   694.6    0.00 
 274   16:30   0.29   58.4    40    3.6   302     9.0   694.6    0.00 
 274   16:40   0.25   56.7    43    3.9   298     9.6   694.6    0.00 
 274   16:50   0.21   57.4    43    3.2   302     7.2   694.6    0.00 
 274   17:00   0.18   56.0    46    3.8   311    11.3   694.6    0.00 
 274   17:10   0.14   54.1    49    3.8   289    10.8   694.6    0.00 
 274   17:20   0.11   52.6    52    4.5   292     9.6   694.6    0.00 
 274   17:30   0.05   51.7    55    4.5   300    10.2   694.6    0.00 
 274   17:40   0.01   49.0    61    5.2   302    11.9   694.6    0.00 
 274   17:50   0.01   47.7    65    4.1   301     8.4   694.6    0.00 
 274   18:00   0.00   47.0    66    4.2   298    10.2   694.6    0.00 
 274   18:10   0.00   46.4    68    3.2   307     6.6   694.7    0.00 
 274   18:20   0.00   45.8    69    3.7   309     9.6   694.7    0.00 
 274   18:30   0.00   45.5    69    3.6   303     7.8   694.7    0.00 
 274   18:40   0.00   45.4    69    3.7   296    10.2   694.7    0.00 
 274   18:50   0.00   45.0    70    3.1   299     8.4   694.8    0.00 
 274   19:00   0.00   44.6    71    3.5   298     8.4   694.8    0.00 
 274   19:10   0.00   44.5    69    3.8   300     8.4   694.8    0.00 
 274   19:20   0.00   44.1    68    2.9   304     9.0   694.9    0.00 
 274   19:30   0.00   43.8    66    2.7   296     7.8   694.9    0.00 
 274   19:40   0.00   43.4    65    2.8   299     7.2   694.9    0.00 
 274   19:50   0.00   43.0    68    2.8   295     5.4   695.0    0.00 
 274   20:00   0.00   42.7    69    3.3   299     8.4   695.0    0.00 
 274   20:10   0.00   42.6    69    3.4   300     7.2   695.1    0.00 
 274   20:20   0.00   42.4    68    3.2   298     7.8   695.1    0.00 
 274   20:30   0.00   41.9    65    2.8   315     5.4   695.0    0.00 
 274   20:40   0.00   41.9    61    3.5   304     7.2   695.0    0.00 
 274   20:50   0.00   42.5    67    3.3   294     6.0   695.0    0.00 
 274   21:00   0.00   42.1    67    2.4   294     4.8   695.0    0.00 
 274   21:10   0.00   41.5    58    2.8   306     6.6   695.0    0.00 
 274   21:20   0.00   41.6    48    2.8   298     8.4   695.0    0.00 
 274   21:30   0.00   42.8    52    2.4   292     6.6   695.0    0.00 
 274   21:40   0.00   41.9    51    2.6   288     6.0   695.0    0.00 
 274   21:50   0.00   41.0    53    2.1   297     5.4   695.0    0.00 
 274   22:00   0.00   41.3    51    2.2   282     4.8   695.0    0.00 
 274   22:10   0.00   40.8    53    1.6   305     4.8   695.0    0.00 
 274   22:20   0.00   41.4    47    1.8   298     5.4   695.0    0.00 
 274   22:30   0.00   41.3    50    1.2   292     4.2   695.0    0.00 
 274   22:40   0.00   40.9    53    2.4   288     6.0   695.0    0.00 
 274   22:50   0.00   40.5    56    3.1   301     6.6   695.0    0.00 
 274   23:00   0.00   40.4    59    2.1   293     4.2   694.9    0.00 
 274   23:10   0.00   40.4    60    2.7   282     6.6   694.9    0.00 
 274   23:20   0.00   40.6    62    2.7   275     4.8   694.9    0.00 
 274   23:30   0.00   40.7    58    2.5   290     6.0   694.9    0.00 
 274   23:40   0.00   40.5    55    2.7   288     5.4   694.9    0.00 
 274   23:50   0.00   40.4    55    2.4   281     4.8   694.8    0.00 
 275    0:00   0.00   40.5    57    2.2   278     3.6   694.8    0.00 
 275    0:10   0.00   40.3    58    1.9   274     4.2   694.8    0.00 
 275    0:20   0.00   39.6    61    1.8   269     4.2   694.8    0.00 

Return to Redondo, Valles Caldera graphs page.


Western Regional Climate Center,wrcc@dri.edu